createdAt,value
2024-02-01T00:00:11.484Z,1009.57
2024-02-01T00:01:12.329Z,1009.62
2024-02-01T00:02:13.065Z,1009.55
2024-02-01T00:03:13.912Z,1009.54
2024-02-01T00:04:14.771Z,1009.47
2024-02-01T00:05:15.822Z,1009.45
2024-02-01T00:06:16.311Z,1009.47
2024-02-01T00:07:17.047Z,1009.41
2024-02-01T00:08:17.798Z,1009.43
2024-02-01T00:09:18.631Z,1009.39
2024-02-01T00:10:19.378Z,1009.38
2024-02-01T00:11:20.129Z,1009.34
2024-02-01T00:12:20.964Z,1009.34
2024-02-01T00:13:21.687Z,1009.33
2024-02-01T00:14:22.470Z,1009.40
2024-02-01T00:15:23.353Z,1009.29
2024-02-01T00:16:24.107Z,1009.40
2024-02-01T00:17:24.841Z,1009.32
2024-02-01T00:18:25.793Z,1009.34
2024-02-01T00:19:26.704Z,1009.37
2024-02-01T00:20:27.420Z,1009.31
2024-02-01T00:21:28.173Z,1009.20
2024-02-01T00:22:33.820Z,1009.20
2024-02-01T00:23:30.669Z,1009.23
2024-02-01T00:24:30.418Z,1009.19
2024-02-01T00:25:31.166Z,1009.16
2024-02-01T00:26:31.954Z,1009.12
2024-02-01T00:27:32.710Z,1009.10
2024-02-01T00:28:33.483Z,1009.09
2024-02-01T00:29:34.328Z,1009.04
2024-02-01T00:30:35.064Z,1009.03
2024-02-01T00:31:35.811Z,1009.05
2024-02-01T00:32:36.737Z,1008.99
2024-02-01T00:33:37.581Z,1008.99
2024-02-01T00:34:38.409Z,1009.02
2024-02-01T00:35:39.171Z,1009.04
2024-02-01T00:36:39.899Z,1008.95
2024-02-01T00:37:40.676Z,1008.98
2024-02-01T00:38:41.451Z,1009.03
2024-02-01T00:39:42.175Z,1008.95
2024-02-01T00:40:42.931Z,1009.00
2024-02-01T00:41:43.739Z,1009.01
2024-02-01T00:42:44.542Z,1009.03
2024-02-01T00:43:45.261Z,1009.11
2024-02-01T00:44:46.108Z,1009.00
2024-02-01T00:45:46.847Z,1009.02
2024-02-01T00:46:47.636Z,1009.02
2024-02-01T00:47:48.502Z,1009.11
2024-02-01T00:48:49.333Z,1009.05
2024-02-01T00:49:50.152Z,1009.10
2024-02-01T00:50:50.882Z,1009.06
2024-02-01T00:51:51.651Z,1009.12
2024-02-01T00:52:52.390Z,1009.07
2024-02-01T00:53:53.157Z,1009.13
2024-02-01T00:54:53.902Z,1009.03
2024-02-01T00:55:54.676Z,1008.98
2024-02-01T00:56:55.512Z,1008.96
2024-02-01T00:57:56.231Z,1008.92
2024-02-01T00:58:57.006Z,1008.94
2024-02-01T00:59:57.944Z,1008.98
2024-02-01T01:00:59.006Z,1008.99
2024-02-01T01:01:59.542Z,1008.97
2024-02-01T01:03:00.477Z,1009.00
2024-02-01T01:04:01.264Z,1008.98
2024-02-01T01:05:02.053Z,1008.98
2024-02-01T01:06:02.879Z,1008.93
2024-02-01T01:07:03.605Z,1008.93
2024-02-01T01:08:04.556Z,1008.88
2024-02-01T01:09:05.349Z,1008.88
2024-02-01T01:10:06.125Z,1008.91
2024-02-01T01:11:06.870Z,1008.90
2024-02-01T01:12:07.804Z,1008.92
2024-02-01T01:13:08.595Z,1008.89
2024-02-01T01:14:09.352Z,1008.88
2024-02-01T01:15:10.174Z,1008.93
2024-02-01T01:16:10.906Z,1008.91
2024-02-01T01:17:11.662Z,1008.91
2024-02-01T01:18:12.560Z,1008.91
2024-02-01T01:19:13.583Z,1008.97
2024-02-01T01:20:15.183Z,1008.98
2024-02-01T01:21:14.601Z,1009.00
2024-02-01T01:22:15.387Z,1008.96
2024-02-01T01:23:16.136Z,1009.03
2024-02-01T01:24:16.950Z,1009.02
2024-02-01T01:25:17.705Z,1008.99
2024-02-01T01:26:18.446Z,1009.01
2024-02-01T01:27:19.210Z,1009.00
2024-02-01T01:28:19.950Z,1009.00
2024-02-01T01:29:20.734Z,1009.03
2024-02-01T01:30:21.497Z,1008.99
2024-02-01T01:31:22.230Z,1009.07
2024-02-01T01:32:22.976Z,1009.05
2024-02-01T01:33:23.852Z,1009.07
2024-02-01T01:34:24.642Z,1009.03
2024-02-01T01:35:25.412Z,1009.07
2024-02-01T01:36:26.121Z,1009.08
2024-02-01T01:37:26.873Z,1009.04
2024-02-01T01:38:27.661Z,1008.99
2024-02-01T01:39:28.414Z,1009.00
2024-02-01T01:40:29.159Z,1008.98
2024-02-01T01:41:29.969Z,1008.92
2024-02-01T01:42:30.740Z,1008.95
2024-02-01T01:43:31.521Z,1008.92
2024-02-01T01:44:32.355Z,1008.91
2024-02-01T01:45:33.105Z,1008.92
2024-02-01T01:46:33.867Z,1008.91
2024-02-01T01:47:34.702Z,1008.89
2024-02-01T01:48:35.628Z,1008.84
2024-02-01T01:49:36.486Z,1008.86
2024-02-01T01:50:37.263Z,1008.83
2024-02-01T01:51:37.995Z,1008.87
2024-02-01T01:52:38.794Z,1008.83
2024-02-01T01:53:39.569Z,1008.82
2024-02-01T01:54:40.291Z,1008.78
2024-02-01T01:55:41.042Z,1008.80
2024-02-01T01:56:41.835Z,1008.78
2024-02-01T01:57:42.594Z,1008.78
2024-02-01T01:58:43.350Z,1008.81
2024-02-01T01:59:44.123Z,1008.76
2024-02-01T02:00:44.925Z,1008.75
2024-02-01T02:01:45.699Z,1008.74
2024-02-01T02:02:46.677Z,1008.79
2024-02-01T02:03:47.432Z,1008.79
2024-02-01T02:04:48.183Z,1008.74
2024-02-01T02:05:49.021Z,1008.77
2024-02-01T02:06:49.908Z,1008.72
2024-02-01T02:07:50.688Z,1008.70
2024-02-01T02:08:51.495Z,1008.71
2024-02-01T02:09:52.210Z,1008.71
2024-02-01T02:10:52.989Z,1008.77
2024-02-01T02:11:53.805Z,1008.74
2024-02-01T02:12:54.530Z,1008.74
2024-02-01T02:13:55.288Z,1008.79
2024-02-01T02:14:56.295Z,1008.84
2024-02-01T02:15:57.037Z,1008.82
2024-02-01T02:16:57.807Z,1008.80
2024-02-01T02:17:58.847Z,1008.86
2024-02-01T02:18:59.763Z,1008.79
2024-02-01T02:20:00.413Z,1008.81
2024-02-01T02:21:01.004Z,1008.88
2024-02-01T02:22:01.764Z,1008.74
2024-02-01T02:23:02.311Z,1008.80
2024-02-01T02:24:03.095Z,1008.74
2024-02-01T02:25:03.857Z,1008.76
2024-02-01T02:26:04.635Z,1008.77
2024-02-01T02:27:05.486Z,1008.73
2024-02-01T02:28:06.282Z,1008.81
2024-02-01T02:29:07.059Z,1008.71
2024-02-01T02:30:07.859Z,1008.77
2024-02-01T02:31:08.597Z,1008.81
2024-02-01T02:32:09.356Z,1008.85
2024-02-01T02:33:10.297Z,1008.86
2024-02-01T02:34:10.735Z,1008.90
2024-02-01T02:35:11.577Z,1008.90
2024-02-01T02:36:12.500Z,1008.83
2024-02-01T02:37:12.857Z,1008.78
2024-02-01T02:38:13.601Z,1008.80
2024-02-01T02:39:14.521Z,1008.81
2024-02-01T02:40:15.274Z,1008.81
2024-02-01T02:41:16.020Z,1008.82
2024-02-01T02:42:17.166Z,1008.78
2024-02-01T02:43:17.564Z,1008.73
2024-02-01T02:44:18.357Z,1008.69
2024-02-01T02:45:19.633Z,1008.66
2024-02-01T02:46:20.016Z,1008.68
2024-02-01T02:47:20.753Z,1008.63
2024-02-01T02:48:21.642Z,1008.70
2024-02-01T02:49:22.472Z,1008.74
2024-02-01T02:50:23.234Z,1008.77
2024-02-01T02:51:24.011Z,1008.69
2024-02-01T02:52:24.755Z,1008.65
2024-02-01T02:53:25.590Z,1008.71
2024-02-01T02:54:26.294Z,1008.72
2024-02-01T02:55:27.046Z,1008.70
2024-02-01T02:56:27.794Z,1008.71
2024-02-01T02:57:28.547Z,1008.64
2024-02-01T02:58:29.327Z,1008.71
2024-02-01T02:59:30.093Z,1008.73
2024-02-01T03:00:30.830Z,1008.71
2024-02-01T03:01:31.622Z,1008.69
2024-02-01T03:02:32.491Z,1008.69
2024-02-01T03:03:33.386Z,1008.64
2024-02-01T03:04:34.156Z,1008.64
2024-02-01T03:05:34.942Z,1008.68
2024-02-01T03:06:35.740Z,1008.65
2024-02-01T03:07:36.548Z,1008.71
2024-02-01T03:08:37.323Z,1008.70
2024-02-01T03:09:38.047Z,1008.67
2024-02-01T03:10:38.802Z,1008.76
2024-02-01T03:11:39.612Z,1008.74
2024-02-01T03:12:40.383Z,1008.75
2024-02-01T03:13:41.134Z,1008.77
2024-02-01T03:14:41.960Z,1008.79
2024-02-01T03:15:42.687Z,1008.76
2024-02-01T03:16:43.481Z,1008.76
2024-02-01T03:17:44.290Z,1008.71
2024-02-01T03:18:45.143Z,1008.74
2024-02-01T03:19:46.116Z,1008.84
2024-02-01T03:20:46.988Z,1008.84
2024-02-01T03:21:47.939Z,1008.78
2024-02-01T03:22:48.655Z,1008.79
2024-02-01T03:23:49.537Z,1008.72
2024-02-01T03:24:50.291Z,1008.77
2024-02-01T03:25:51.075Z,1008.72
2024-02-01T03:26:51.914Z,1008.73
2024-02-01T03:27:52.663Z,1008.73
2024-02-01T03:28:53.417Z,1008.71
2024-02-01T03:29:54.285Z,1008.79
2024-02-01T03:30:55.023Z,1008.67
2024-02-01T03:31:55.927Z,1008.72
2024-02-01T03:32:56.671Z,1008.73
2024-02-01T03:33:57.564Z,1008.78
2024-02-01T03:34:58.385Z,1008.76
2024-02-01T03:35:59.183Z,1008.73
2024-02-01T03:36:59.928Z,1008.75
2024-02-01T03:38:00.651Z,1008.74
2024-02-01T03:39:01.407Z,1008.80
2024-02-01T03:40:02.403Z,1008.69
2024-02-01T03:41:03.189Z,1008.70
2024-02-01T03:42:03.995Z,1008.71
2024-02-01T03:43:04.701Z,1008.68
2024-02-01T03:44:05.462Z,1008.65
2024-02-01T03:45:06.343Z,1008.69
2024-02-01T03:46:07.112Z,1008.67
2024-02-01T03:47:07.852Z,1008.67
2024-02-01T03:48:08.756Z,1008.67
2024-02-01T03:49:09.675Z,1008.64
2024-02-01T03:50:10.512Z,1008.63
2024-02-01T03:51:11.257Z,1008.67
2024-02-01T03:52:12.029Z,1008.69
2024-02-01T03:53:12.749Z,1008.71
2024-02-01T03:54:13.566Z,1008.70
2024-02-01T03:55:14.310Z,1008.67
2024-02-01T03:56:15.068Z,1008.67
2024-02-01T03:57:15.907Z,1008.70
2024-02-01T03:58:16.678Z,1008.69
2024-02-01T03:59:17.525Z,1008.68
2024-02-01T04:00:18.303Z,1008.67
2024-02-01T04:01:19.087Z,1008.67
2024-02-01T04:02:19.826Z,1008.76
2024-02-01T04:03:20.708Z,1008.78
2024-02-01T04:04:21.536Z,1008.69
2024-02-01T04:05:22.274Z,1008.67
2024-02-01T04:06:23.200Z,1008.62
2024-02-01T04:07:23.977Z,1008.63
2024-02-01T04:08:24.738Z,1008.62
2024-02-01T04:09:25.576Z,1008.66
2024-02-01T04:10:26.326Z,1008.69
2024-02-01T04:11:27.076Z,1008.68
2024-02-01T04:12:27.847Z,1008.61
2024-02-01T04:13:28.614Z,1008.63
2024-02-01T04:14:29.369Z,1008.67
2024-02-01T04:15:30.132Z,1008.67
2024-02-01T04:16:30.884Z,1008.66
2024-02-01T04:17:31.762Z,1008.68
2024-02-01T04:18:32.636Z,1008.71
2024-02-01T04:19:33.438Z,1008.65
2024-02-01T04:20:34.231Z,1008.72
2024-02-01T04:21:34.923Z,1008.73
2024-02-01T04:22:35.734Z,1008.72
2024-02-01T04:23:36.493Z,1008.78
2024-02-01T04:24:37.215Z,1008.69
2024-02-01T04:25:37.965Z,1008.71
2024-02-01T04:26:38.767Z,1008.71
2024-02-01T04:27:39.579Z,1008.71
2024-02-01T04:28:40.338Z,1008.75
2024-02-01T04:29:41.117Z,1008.73
2024-02-01T04:30:41.850Z,1008.75
2024-02-01T04:31:42.619Z,1008.77
2024-02-01T04:32:43.451Z,1008.75
2024-02-01T04:33:44.322Z,1008.81
2024-02-01T04:34:45.155Z,1008.82
2024-02-01T04:35:45.913Z,1008.80
2024-02-01T04:36:46.659Z,1008.82
2024-02-01T04:37:47.436Z,1008.90
2024-02-01T04:38:48.160Z,1008.89
2024-02-01T04:39:48.907Z,1008.86
2024-02-01T04:40:49.681Z,1008.86
2024-02-01T04:41:50.499Z,1008.89
2024-02-01T04:42:51.245Z,1008.89
2024-02-01T04:43:52.001Z,1008.90
2024-02-01T04:44:52.769Z,1008.87
2024-02-01T04:45:53.543Z,1008.96
2024-02-01T04:46:54.300Z,1009.03
2024-02-01T04:47:55.147Z,1008.95
2024-02-01T04:48:56.041Z,1009.00
2024-02-01T04:49:56.905Z,1009.00
2024-02-01T04:50:57.748Z,1008.91
2024-02-01T04:51:58.450Z,1008.95
2024-02-01T04:52:59.222Z,1008.96
2024-02-01T04:54:00.016Z,1008.97
2024-02-01T04:55:00.770Z,1009.01
2024-02-01T04:56:01.532Z,1008.92
2024-02-01T04:57:02.363Z,1008.99
2024-02-01T04:58:03.159Z,1008.96
2024-02-01T04:59:03.904Z,1008.98
2024-02-01T05:00:04.684Z,1008.99
2024-02-01T05:01:05.523Z,1009.03
2024-02-01T05:02:06.402Z,1009.03
2024-02-01T05:03:07.269Z,1008.97
2024-02-01T05:04:08.146Z,1009.03
2024-02-01T05:05:08.923Z,1008.99
2024-02-01T05:06:10.440Z,1009.03
2024-02-01T05:07:10.547Z,1009.07
2024-02-01T05:08:10.890Z,1009.10
2024-02-01T05:09:11.781Z,1009.04
2024-02-01T05:10:12.531Z,1009.05
2024-02-01T05:11:13.280Z,1009.13
2024-02-01T05:12:14.211Z,1009.15
2024-02-01T05:13:15.025Z,1009.14
2024-02-01T05:14:15.783Z,1009.25
2024-02-01T05:15:16.652Z,1009.22
2024-02-01T05:16:17.400Z,1009.19
2024-02-01T05:17:18.161Z,1009.18
2024-02-01T05:18:19.170Z,1009.18
2024-02-01T05:19:19.607Z,1009.19
2024-02-01T05:20:20.415Z,1009.17
2024-02-01T05:21:21.232Z,1009.20
2024-02-01T05:22:21.939Z,1009.18
2024-02-01T05:23:22.747Z,1009.18
2024-02-01T05:24:23.477Z,1009.18
2024-02-01T05:25:24.233Z,1009.22
2024-02-01T05:26:24.978Z,1009.16
2024-02-01T05:27:25.874Z,1009.24
2024-02-01T05:28:26.732Z,1009.28
2024-02-01T05:29:27.453Z,1009.30
2024-02-01T05:30:28.311Z,1009.34
2024-02-01T05:31:29.091Z,1009.29
2024-02-01T05:32:29.898Z,1009.34
2024-02-01T05:33:30.793Z,1009.42
2024-02-01T05:34:31.730Z,1009.33
2024-02-01T05:35:32.487Z,1009.45
2024-02-01T05:36:33.231Z,1009.49
2024-02-01T05:37:34.025Z,1009.48
2024-02-01T05:38:34.830Z,1009.49
2024-02-01T05:39:35.544Z,1009.54
2024-02-01T05:40:36.290Z,1009.54
2024-02-01T05:41:37.104Z,1009.55
2024-02-01T05:42:37.870Z,1009.58
2024-02-01T05:43:38.627Z,1009.56
2024-02-01T05:44:39.413Z,1009.58
2024-02-01T05:45:40.150Z,1009.67
2024-02-01T05:46:40.920Z,1009.65
2024-02-01T05:47:41.814Z,1009.66
2024-02-01T05:48:42.866Z,1009.71
2024-02-01T05:49:43.365Z,1009.69
2024-02-01T05:50:43.747Z,1009.73
2024-02-01T05:51:44.495Z,1009.71
2024-02-01T05:52:45.250Z,1009.71
2024-02-01T05:53:46.040Z,1009.71
2024-02-01T05:54:46.873Z,1009.72
2024-02-01T05:55:47.649Z,1009.74
2024-02-01T05:56:48.449Z,1009.74
2024-02-01T05:57:49.163Z,1009.73
2024-02-01T05:58:49.907Z,1009.76
2024-02-01T05:59:50.690Z,1009.76
2024-02-01T06:00:51.475Z,1009.79
2024-02-01T06:01:52.202Z,1009.81
2024-02-01T06:02:53.290Z,1009.84
2024-02-01T06:03:53.609Z,1009.86
2024-02-01T06:04:54.436Z,1009.87
2024-02-01T06:05:55.216Z,1009.82
2024-02-01T06:06:55.973Z,1009.91
2024-02-01T06:07:56.692Z,1009.95
2024-02-01T06:08:57.537Z,1009.94
2024-02-01T06:09:58.279Z,1009.96
2024-02-01T06:10:59.068Z,1009.97
2024-02-01T06:11:59.820Z,1009.98
2024-02-01T06:13:00.570Z,1010.02
2024-02-01T06:14:01.413Z,1010.07
2024-02-01T06:15:02.726Z,1010.20
2024-02-01T06:16:03.158Z,1010.13
2024-02-01T06:17:03.916Z,1010.15
2024-02-01T06:18:04.865Z,1010.25
2024-02-01T06:19:05.829Z,1010.26
2024-02-01T06:20:06.230Z,1010.26
2024-02-01T06:21:06.996Z,1010.27
2024-02-01T06:22:07.733Z,1010.35
2024-02-01T06:23:08.483Z,1010.29
2024-02-01T06:24:09.308Z,1010.34
2024-02-01T06:25:10.036Z,1010.35
2024-02-01T06:26:10.792Z,1010.45
2024-02-01T06:27:11.679Z,1010.37
2024-02-01T06:28:12.466Z,1010.37
2024-02-01T06:29:13.263Z,1010.37
2024-02-01T06:30:14.378Z,1010.41
2024-02-01T06:31:14.712Z,1010.43
2024-02-01T06:32:15.453Z,1010.47
2024-02-01T06:33:16.289Z,1010.48
2024-02-01T06:34:17.112Z,1010.52
2024-02-01T06:35:19.013Z,1010.53
2024-02-01T06:36:18.502Z,1010.56
2024-02-01T06:37:19.370Z,1010.56
2024-02-01T06:38:20.143Z,1010.56
2024-02-01T06:39:20.938Z,1010.59
2024-02-01T06:40:21.694Z,1010.62
2024-02-01T06:41:22.447Z,1010.68
2024-02-01T06:42:23.394Z,1010.73
2024-02-01T06:43:24.168Z,1010.67
2024-02-01T06:44:25.042Z,1010.67
2024-02-01T06:45:25.990Z,1010.66
2024-02-01T06:46:26.352Z,1010.70
2024-02-01T06:47:27.158Z,1010.75
2024-02-01T06:48:27.979Z,1010.79
2024-02-01T06:49:30.569Z,1010.78
2024-02-01T06:50:29.494Z,1010.83
2024-02-01T06:51:30.248Z,1010.91
2024-02-01T06:52:31.020Z,1010.94
2024-02-01T06:53:31.753Z,1010.95
2024-02-01T06:54:32.698Z,1011.02
2024-02-01T06:55:33.525Z,1011.04
2024-02-01T06:56:34.283Z,1011.11
2024-02-01T06:57:35.129Z,1011.16
2024-02-01T06:58:35.850Z,1011.15
2024-02-01T06:59:36.624Z,1011.15
2024-02-01T07:00:37.389Z,1011.18
2024-02-01T07:01:38.211Z,1011.20
2024-02-01T07:02:38.976Z,1011.24
2024-02-01T07:03:39.936Z,1011.28
2024-02-01T07:04:40.332Z,1011.30
2024-02-01T07:05:41.180Z,1011.36
2024-02-01T07:06:41.999Z,1011.40
2024-02-01T07:07:42.714Z,1011.41
2024-02-01T07:08:43.464Z,1011.33
2024-02-01T07:09:44.233Z,1011.41
2024-02-01T07:10:45.120Z,1011.38
2024-02-01T07:11:45.875Z,1011.42
2024-02-01T07:12:46.587Z,1011.41
2024-02-01T07:13:47.479Z,1011.41
2024-02-01T07:14:48.384Z,1011.39
2024-02-01T07:15:49.131Z,1011.39
2024-02-01T07:16:49.882Z,1011.39
2024-02-01T07:17:50.712Z,1011.39
2024-02-01T07:18:51.601Z,1011.38
2024-02-01T07:19:52.461Z,1011.41
2024-02-01T07:20:53.406Z,1011.40
2024-02-01T07:21:53.667Z,1011.38
2024-02-01T07:22:54.422Z,1011.36
2024-02-01T07:23:55.197Z,1011.37
2024-02-01T07:24:55.979Z,1011.41
2024-02-01T07:25:56.733Z,1011.41
2024-02-01T07:26:57.509Z,1011.43
2024-02-01T07:27:58.288Z,1011.48
2024-02-01T07:28:59.029Z,1011.46
2024-02-01T07:29:59.850Z,1011.50
2024-02-01T07:31:00.603Z,1011.50
2024-02-01T07:32:01.321Z,1011.52
2024-02-01T07:33:02.215Z,1011.55
2024-02-01T07:34:03.103Z,1011.56
2024-02-01T07:35:04.015Z,1011.61
2024-02-01T07:36:04.836Z,1011.59
2024-02-01T07:37:05.575Z,1011.61
2024-02-01T07:38:06.331Z,1011.60
2024-02-01T07:39:07.165Z,1011.58
2024-02-01T07:40:07.951Z,1011.60
2024-02-01T07:41:08.655Z,1011.65
2024-02-01T07:42:09.517Z,1011.62
2024-02-01T07:43:10.269Z,1011.67
2024-02-01T07:44:11.046Z,1011.69
2024-02-01T07:45:11.838Z,1011.72
2024-02-01T07:46:12.663Z,1011.73
2024-02-01T07:47:13.408Z,1011.73
2024-02-01T07:48:14.292Z,1011.80
2024-02-01T07:49:15.214Z,1011.76
2024-02-01T07:50:16.007Z,1011.76
2024-02-01T07:51:16.947Z,1011.81
2024-02-01T07:52:17.734Z,1011.80
2024-02-01T07:53:18.529Z,1011.78
2024-02-01T07:54:19.337Z,1011.82
2024-02-01T07:55:20.068Z,1011.95
2024-02-01T07:56:20.797Z,1011.95
2024-02-01T07:57:21.613Z,1012.00
2024-02-01T07:58:22.363Z,1012.08
2024-02-01T07:59:23.084Z,1012.08
2024-02-01T08:00:23.856Z,1012.11
2024-02-01T08:01:24.673Z,1012.18
2024-02-01T08:02:25.629Z,1012.15
2024-02-01T08:03:26.513Z,1012.21
2024-02-01T08:04:27.325Z,1012.18
2024-02-01T08:05:28.073Z,1012.20
2024-02-01T08:06:28.960Z,1012.25
2024-02-01T08:07:29.746Z,1012.26
2024-02-01T08:08:30.505Z,1012.24
2024-02-01T08:09:31.256Z,1012.27
2024-02-01T08:10:32.037Z,1012.27
2024-02-01T08:11:32.818Z,1012.29
2024-02-01T08:12:33.594Z,1012.29
2024-02-01T08:13:34.338Z,1012.31
2024-02-01T08:14:35.118Z,1012.36
2024-02-01T08:15:35.844Z,1012.39
2024-02-01T08:16:36.678Z,1012.40
2024-02-01T08:17:37.577Z,1012.42
2024-02-01T08:18:38.019Z,1012.42
2024-02-01T08:19:40.746Z,1012.45
2024-02-01T08:20:39.690Z,1012.37
2024-02-01T08:21:40.271Z,1012.37
2024-02-01T08:22:41.002Z,1012.36
2024-02-01T08:23:41.776Z,1012.39
2024-02-01T08:24:42.566Z,1012.34
2024-02-01T08:25:43.364Z,1012.39
2024-02-01T08:26:44.219Z,1012.36
2024-02-01T08:27:44.987Z,1012.38
2024-02-01T08:28:45.910Z,1012.37
2024-02-01T08:29:46.662Z,1012.38
2024-02-01T08:30:49.381Z,1012.38
2024-02-01T08:31:47.984Z,1012.40
2024-02-01T08:32:48.841Z,1012.37
2024-02-01T08:33:49.723Z,1012.41
2024-02-01T08:34:50.505Z,1012.38
2024-02-01T08:35:51.348Z,1012.38
2024-02-01T08:36:52.069Z,1012.40
2024-02-01T08:37:52.816Z,1012.47
2024-02-01T08:38:53.614Z,1012.50
2024-02-01T08:39:54.346Z,1012.55
2024-02-01T08:40:55.160Z,1012.57
2024-02-01T08:41:55.957Z,1012.65
2024-02-01T08:42:56.681Z,1012.69
2024-02-01T08:43:57.477Z,1012.71
2024-02-01T08:44:58.253Z,1012.76
2024-02-01T08:45:59.012Z,1012.78
2024-02-01T08:46:59.764Z,1012.77
2024-02-01T08:48:00.663Z,1012.82
2024-02-01T08:49:01.678Z,1012.86
2024-02-01T08:50:02.018Z,1012.91
2024-02-01T08:51:02.793Z,1012.92
2024-02-01T08:52:03.519Z,1012.95
2024-02-01T08:53:04.267Z,1013.02
2024-02-01T08:54:05.172Z,1012.99
2024-02-01T08:55:06.065Z,1013.05
2024-02-01T08:56:06.900Z,1013.09
2024-02-01T08:57:07.622Z,1013.11
2024-02-01T08:58:08.386Z,1013.08
2024-02-01T08:59:09.170Z,1013.15
2024-02-01T09:00:09.929Z,1013.14
2024-02-01T09:01:10.680Z,1013.20
2024-02-01T09:02:11.409Z,1013.19
2024-02-01T09:03:12.797Z,1013.23
2024-02-01T09:04:13.004Z,1013.30
2024-02-01T09:05:13.865Z,1013.29
2024-02-01T09:06:14.815Z,1013.29
2024-02-01T09:07:15.263Z,1013.25
2024-02-01T09:08:16.101Z,1013.28
2024-02-01T09:09:16.916Z,1013.24
2024-02-01T09:10:21.417Z,1013.25
2024-02-01T09:11:18.586Z,1013.25
2024-02-01T09:12:19.369Z,1013.29
2024-02-01T09:13:20.152Z,1013.28
2024-02-01T09:14:20.906Z,1013.34
2024-02-01T09:15:21.678Z,1013.31
2024-02-01T09:16:22.447Z,1013.37
2024-02-01T09:17:23.241Z,1013.39
2024-02-01T09:18:24.157Z,1013.42
2024-02-01T09:19:25.190Z,1013.40
2024-02-01T09:20:25.460Z,1013.39
2024-02-01T09:21:26.268Z,1013.38
2024-02-01T09:22:27.026Z,1013.37
2024-02-01T09:23:27.776Z,1013.35
2024-02-01T09:24:28.563Z,1013.32
2024-02-01T09:25:29.281Z,1013.35
2024-02-01T09:26:30.086Z,1013.34
2024-02-01T09:27:30.854Z,1013.40
2024-02-01T09:28:31.582Z,1013.41
2024-02-01T09:29:32.350Z,1013.46
2024-02-01T09:30:33.156Z,1013.41
2024-02-01T09:31:33.904Z,1013.41
2024-02-01T09:32:34.707Z,1013.43
2024-02-01T09:33:35.563Z,1013.48
2024-02-01T09:34:36.380Z,1013.47
2024-02-01T09:35:37.292Z,1013.51
2024-02-01T09:36:38.102Z,1013.47
2024-02-01T09:37:38.857Z,1013.49
2024-02-01T09:38:39.638Z,1013.50
2024-02-01T09:39:40.362Z,1013.49
2024-02-01T09:40:41.146Z,1013.54
2024-02-01T09:41:41.961Z,1013.53
2024-02-01T09:42:42.740Z,1013.60
2024-02-01T09:43:43.503Z,1013.66
2024-02-01T09:44:44.309Z,1013.69
2024-02-01T09:45:45.074Z,1013.69
2024-02-01T09:46:45.821Z,1013.70
2024-02-01T09:47:46.667Z,1013.78
2024-02-01T09:48:47.753Z,1013.76
2024-02-01T09:49:48.282Z,1013.75
2024-02-01T09:50:49.140Z,1013.72
2024-02-01T09:51:49.862Z,1013.71
2024-02-01T09:52:50.626Z,1013.75
2024-02-01T09:53:51.809Z,1013.76
2024-02-01T09:54:52.205Z,1013.77
2024-02-01T09:55:52.955Z,1013.76
2024-02-01T09:56:53.763Z,1013.73
2024-02-01T09:57:54.462Z,1013.72
2024-02-01T09:58:55.213Z,1013.72
2024-02-01T09:59:56.029Z,1013.78
2024-02-01T10:00:56.957Z,1013.78
2024-02-01T10:01:57.710Z,1013.81
2024-02-01T10:02:58.616Z,1013.79
2024-02-01T10:03:59.603Z,1013.81
2024-02-01T10:04:59.960Z,1013.88
2024-02-01T10:06:00.770Z,1013.84
2024-02-01T10:07:01.479Z,1013.87
2024-02-01T10:08:02.253Z,1013.95
2024-02-01T10:09:03.097Z,1013.94
2024-02-01T10:10:03.833Z,1013.96
2024-02-01T10:11:04.576Z,1014.00
2024-02-01T10:12:05.391Z,1014.04
2024-02-01T10:13:06.154Z,1014.05
2024-02-01T10:14:06.924Z,1014.02
2024-02-01T10:15:07.711Z,1014.06
2024-02-01T10:16:08.471Z,1014.10
2024-02-01T10:17:09.211Z,1014.07
2024-02-01T10:18:10.122Z,1014.10
2024-02-01T10:19:11.058Z,1014.13
2024-02-01T10:20:11.882Z,1014.12
2024-02-01T10:21:12.709Z,1014.11
2024-02-01T10:22:13.453Z,1014.12
2024-02-01T10:23:14.259Z,1014.14
2024-02-01T10:24:15.021Z,1014.18
2024-02-01T10:25:15.770Z,1014.16
2024-02-01T10:26:16.496Z,1014.21
2024-02-01T10:27:17.338Z,1014.27
2024-02-01T10:28:18.116Z,1014.30
2024-02-01T10:29:18.973Z,1014.31
2024-02-01T10:30:19.844Z,1014.31
2024-02-01T10:31:20.700Z,1014.31
2024-02-01T10:32:21.458Z,1014.37
2024-02-01T10:33:23.538Z,1014.33
2024-02-01T10:34:23.272Z,1014.32
2024-02-01T10:35:24.151Z,1014.34
2024-02-01T10:36:24.972Z,1014.29
2024-02-01T10:37:25.714Z,1014.30
2024-02-01T10:38:26.476Z,1014.36
2024-02-01T10:39:27.320Z,1014.39
2024-02-01T10:40:28.050Z,1014.37
2024-02-01T10:41:28.832Z,1014.41
2024-02-01T10:42:29.634Z,1014.43
2024-02-01T10:43:30.364Z,1014.40
2024-02-01T10:44:36.262Z,1014.34
2024-02-01T10:45:32.021Z,1014.44
2024-02-01T10:46:32.872Z,1014.45
2024-02-01T10:47:33.627Z,1014.42
2024-02-01T10:48:34.476Z,1014.41
2024-02-01T10:49:35.312Z,1014.42
2024-02-01T10:50:36.049Z,1014.39
2024-02-01T10:51:36.830Z,1014.36
2024-02-01T10:52:37.586Z,1014.34
2024-02-01T10:53:38.413Z,1014.32
2024-02-01T10:54:39.149Z,1014.37
2024-02-01T10:55:39.934Z,1014.39
2024-02-01T10:56:40.731Z,1014.32
2024-02-01T10:57:41.489Z,1014.31
2024-02-01T10:58:42.216Z,1014.29
2024-02-01T10:59:43.026Z,1014.31
2024-02-01T11:00:43.819Z,1014.26
2024-02-01T11:01:44.540Z,1014.31
2024-02-01T11:02:45.312Z,1014.30
2024-02-01T11:03:46.092Z,1014.28
2024-02-01T11:04:46.830Z,1014.31
2024-02-01T11:05:47.655Z,1014.38
2024-02-01T11:06:48.453Z,1014.34
2024-02-01T11:07:49.223Z,1014.35
2024-02-01T11:08:50.065Z,1014.42
2024-02-01T11:09:50.962Z,1014.41
2024-02-01T11:10:51.266Z,1014.44
2024-02-01T11:11:52.222Z,1014.41
2024-02-01T11:12:53.038Z,1014.54
2024-02-01T11:13:53.752Z,1014.34
2024-02-01T11:14:54.791Z,1014.33
2024-02-01T11:15:55.225Z,1014.26
2024-02-01T11:16:55.983Z,1014.21
2024-02-01T11:17:56.824Z,1014.15
2024-02-01T11:18:57.758Z,1014.14
2024-02-01T11:19:58.718Z,1014.17
2024-02-01T11:20:59.556Z,1014.17
2024-02-01T11:22:00.301Z,1014.11
2024-02-01T11:23:01.055Z,1014.08
2024-02-01T11:24:01.834Z,1014.05
2024-02-01T11:25:02.577Z,1014.12
2024-02-01T11:26:03.225Z,1014.08
2024-02-01T11:27:04.028Z,1014.07
2024-02-01T11:28:04.764Z,1014.04
2024-02-01T11:29:05.591Z,1014.04
2024-02-01T11:30:06.435Z,1013.98
2024-02-01T11:31:13.806Z,1014.00
2024-02-01T11:32:08.889Z,1014.01
2024-02-01T11:33:08.765Z,1014.04
2024-02-01T11:34:09.610Z,1014.03
2024-02-01T11:35:10.425Z,1014.08
2024-02-01T11:36:11.226Z,1014.08
2024-02-01T11:37:11.936Z,1014.10
2024-02-01T11:38:12.719Z,1014.08
2024-02-01T11:39:13.635Z,1014.15
2024-02-01T11:40:14.389Z,1014.04
2024-02-01T11:41:15.148Z,1014.05
2024-02-01T11:42:23.715Z,1014.07
2024-02-01T11:43:17.617Z,1014.07
2024-02-01T11:44:17.347Z,1014.05
2024-02-01T11:45:18.144Z,1014.04
2024-02-01T11:46:18.879Z,1013.96
2024-02-01T11:47:19.622Z,1013.97
2024-02-01T11:48:20.487Z,1014.01
2024-02-01T11:49:21.433Z,1014.01
2024-02-01T11:50:22.203Z,1014.01
2024-02-01T11:51:22.963Z,1014.04
2024-02-01T11:52:23.791Z,1014.01
2024-02-01T11:53:24.530Z,1014.03
2024-02-01T11:54:25.300Z,1014.03
2024-02-01T11:55:27.403Z,1014.02
2024-02-01T11:56:26.667Z,1014.01
2024-02-01T11:57:27.449Z,1014.02
2024-02-01T11:58:28.225Z,1014.01
2024-02-01T11:59:28.955Z,1013.99
2024-02-01T12:00:43.753Z,1013.98
2024-02-01T12:01:31.580Z,1013.97
2024-02-01T12:02:30.920Z,1013.98
2024-02-01T12:03:31.700Z,1013.99
2024-02-01T12:04:32.433Z,1014.00
2024-02-01T12:05:33.183Z,1013.96
2024-02-01T12:06:33.965Z,1014.00
2024-02-01T12:07:34.761Z,1013.98
2024-02-01T12:08:35.810Z,1013.99
2024-02-01T12:09:36.069Z,1014.00
2024-02-01T12:10:36.832Z,1014.00
2024-02-01T12:11:37.608Z,1014.01
2024-02-01T12:12:38.356Z,1014.05
2024-02-01T12:13:39.129Z,1014.02
2024-02-01T12:14:40.032Z,1014.01